Flight Track Log - Related Links

Times and Time Zones

All times are in EDT time to prevent confusion due to time zone crossing. See the EJA727 flight status page for this flight to view local times or setup timezone preferences in your user account.

Time Position Orientation Groundspeed Altitude Reporting Facility
EDT Latitude Longitude Course Direction KTS MPH feet Rate Location/Type
Tue 01:45:52 PM 40.8333 -74.1167 270° West 181 208 1,500  Level New York TRACON
Tue 01:46:52 PM 40.8167 -74.1833 252° West 205 236 3,500 2,200 Climbing New York TRACON
Tue 01:48:52 PM 40.7983 -74.3731 263° West 255 293 8,100 2,188 Climbing New York Center
Tue 01:49:53 PM 40.7811 -74.4625 256° West 272 313 10,100 2,380 Climbing New York Center
Tue 01:50:53 PM 40.7358 -74.5722 241° Southwest 302 348 12,900 2,750 Climbing New York Center
Tue 01:51:00 PM 40.6000 -74.8725 270° West  Level FlightAware Approximate
Tue 01:51:53 PM 40.6969 -74.6769 244° Southwest 339 390 15,600  Level New York Center
Tue 01:52:51 PM 40.6467 -74.8136 244° Southwest 360 414 17,100 1,966 Climbing New York Center
Tue 01:53:52 PM 40.5989 -74.9256 241° Southwest 386 444 19,500 2,439 Climbing New York Center
Tue 01:54:54 PM 40.5258 -75.0494 232° Southwest 400 460 22,100 2,319 Climbing New York Center
Tue 01:55:51 PM 40.4544 -75.1706 232° Southwest 419 482 24,100 1,795 Climbing New York Center
Tue 01:56:51 PM 40.3811 -75.2939 232° Southwest 431 496 25,600 1,488 Climbing New York Center
Tue 01:57:52 PM 40.3053 -75.4194 232° Southwest 444 511 27,100 1,426 Climbing New York Center
Tue 01:58:53 PM 40.2361 -75.5372 232° Southwest 450 518 28,500 1,412 Climbing New York Center
Tue 01:59:51 PM 40.1489 -75.6833 232° Southwest 457 526 29,900 1,261 Climbing New York Center
Tue 02:00:52 PM 40.0661 -75.8131 230° Southwest 472 543 31,000 992 Climbing New York Center
Tue 02:01:52 PM 39.9856 -75.9428 231° Southwest 472 543 31,900 891 Climbing New York Center
Tue 02:03:47 PM 39.8289 -76.1994 232° Southwest 481 554 33,600 989 Climbing Washington Center
Tue 02:04:48 PM 39.7383 -76.3281 228° Southwest 486 559 34,800 1,109 Climbing Washington Center
Tue 02:05:46 PM 39.6583 -76.4567 231° Southwest 475 547 35,800 1,008 Climbing Washington Center
Tue 02:06:47 PM 39.5742 -76.5875 230° Southwest 475 547 36,800 984 Climbing Washington Center
Tue 02:07:48 PM 39.4917 -76.7156 230° Southwest 475 547 37,800 595 Climbing Washington Center
Tue 02:08:48 PM 39.4114 -76.8433 231° Southwest 470 541 38,000 102 Climbing Washington Center
Tue 02:09:46 PM 39.3264 -76.9733 230° Southwest 470 541 38,000  Level Washington Center
Tue 02:10:47 PM 39.2606 -77.0792 231° Southwest 475 547 38,000  Level Washington Center
Tue 02:11:47 PM 39.1564 -77.2350 229° Southwest 475 547 38,000  Level Washington Center
Tue 02:12:47 PM 39.0733 -77.3642 230° Southwest 475 547 38,000  Level Washington Center
Tue 02:13:48 PM 38.9900 -77.4903 230° Southwest 475 547 38,000  Level Washington Center
Tue 02:14:46 PM 38.9025 -77.6189 229° Southwest 477 549 38,000  Level Washington Center
Tue 02:15:47 PM 38.8361 -77.7236 231° Southwest 477 549 38,000  Level Washington Center
Tue 02:16:47 PM 38.7375 -77.8753 230° Southwest 490 564 38,000  Level Washington Center
Tue 02:17:48 PM 38.6450 -78.0158 230° Southwest 490 564 38,000  Level Washington Center
Tue 02:18:46 PM 38.5589 -78.1431 229° Southwest 484 557 38,000  Level Washington Center
Tue 02:19:47 PM 38.4750 -78.2703 230° Southwest 484 557 38,000 443 Level Washington Center
Tue 02:20:48 PM 38.3886 -78.3942 228° Southwest 478 550 38,900 667 Climbing Washington Center
Tue 02:22:00 PM 38.2772 -78.4962 216° Southwest  Level FlightAware Approximate
Tue 02:22:47 PM 38.2350 -78.6264 216° Southwest 460 529 40,000  Level Washington Center
Tue 02:23:47 PM 38.1525 -78.7525 230° Southwest 460 529 40,000  Level Washington Center
Tue 02:24:45 PM 38.0633 -78.8886 230° Southwest 460 529 40,000  Level Washington Center
Tue 02:25:46 PM 37.9806 -79.0139 230° Southwest 460 529 40,000  Level Washington Center
Tue 02:26:47 PM 37.9019 -79.1394 232° Southwest 460 529 40,000  Level Washington Center
Tue 02:27:48 PM 37.8189 -79.2617 229° Southwest 460 529 40,000  Level Washington Center
Tue 02:28:48 PM 37.7467 -79.3736 231° Southwest 460 529 40,000  Level Washington Center
Tue 02:29:47 PM 37.6611 -79.4981 229° Southwest 465 535 40,000  Level Washington Center
Tue 02:30:48 PM 37.5733 -79.6350 231° Southwest 465 535 40,000  Level Washington Center
Tue 02:33:42 PM 37.3264 -79.9989 230° Southwest 445 512 40,000  Level Atlanta Center
Tue 02:34:42 PM 37.2506 -80.1097 229° Southwest 451 519 40,000  Level Atlanta Center
Tue 02:35:42 PM 37.1689 -80.2258 229° Southwest 457 526 40,000  Level Atlanta Center
Tue 02:36:42 PM 37.0850 -80.3494 230° Southwest 469 540 40,000  Level Atlanta Center
Tue 02:37:42 PM 37.0031 -80.4703 230° Southwest 463 533 40,000  Level Atlanta Center
Tue 02:38:42 PM 36.9131 -80.6042 230° Southwest 442 509 40,000  Level Atlanta Center
Tue 02:39:42 PM 36.8308 -80.7192 228° Southwest 436 502 40,000  Level Atlanta Center
Tue 02:40:42 PM 36.7592 -80.8492 235° Southwest 450 518 40,000  Level Atlanta Center
Tue 02:41:42 PM 36.7081 -80.9678 242° Southwest 450 518 40,000  Level Atlanta Center
Tue 02:42:42 PM 36.6428 -81.1075 240° Southwest 460 529 40,000  Level Atlanta Center
Tue 02:43:42 PM 36.5792 -81.2442 240° Southwest 465 535 40,000  Level Atlanta Center
Tue 02:44:42 PM 36.5075 -81.3939 239° Southwest 465 535 40,000  Level Atlanta Center
Tue 02:45:42 PM 36.4456 -81.5300 241° Southwest 465 535 40,000  Level Atlanta Center
Tue 02:46:42 PM 36.3794 -81.6664 239° Southwest 460 529 40,000  Level Atlanta Center
Tue 02:47:42 PM 36.2900 -81.7822 226° Southwest 453 521 40,000  Level Atlanta Center
Tue 02:48:42 PM 36.2042 -81.8875 225° Southwest 453 521 40,000  Level Atlanta Center
Tue 02:49:42 PM 36.1164 -82.0006 226° Southwest 460 529 40,000  Level Atlanta Center
Tue 02:50:42 PM 36.0264 -82.1106 225° Southwest 460 529 40,000 -50 Level Atlanta Center
Tue 02:51:42 PM 35.9383 -82.2228 226° Southwest 460 529 39,900 -950 Descending Atlanta Center
Tue 02:52:42 PM 35.8461 -82.3275 223° Southwest 455 524 38,100 -1,800 Descending Atlanta Center
Tue 02:53:42 PM 35.7578 -82.4267 222° Southwest 445 512 36,300 -1,550 Descending Atlanta Center
Tue 02:54:42 PM 35.6611 -82.5308 221° Southwest 459 528 35,000 -1,200 Descending Atlanta Center
Tue 02:55:42 PM 35.5642 -82.6372 222° Southwest 467 537 33,900 -1,500 Descending Atlanta Center
Tue 02:56:42 PM 35.4758 -82.7483 226° Southwest 462 532 32,000 -1,950 Descending Atlanta Center
Tue 02:57:42 PM 35.3933 -82.8567 227° Southwest 470 541 30,000 -2,700 Descending Atlanta Center
Tue 02:58:42 PM 35.2903 -82.9853 226° Southwest 475 547 26,600 -2,950 Descending Atlanta Center
Tue 02:59:42 PM 35.1992 -83.0958 225° Southwest 485 558 24,100 -1,300 Descending Atlanta Center
Tue 03:00:42 PM 35.1186 -83.2033 228° Southwest 471 542 24,000 -600 Descending Atlanta Center
Tue 03:01:42 PM 35.0297 -83.3108 225° Southwest 471 542 22,900 -1,500 Descending Atlanta Center
Tue 03:02:42 PM 34.9447 -83.4181 226° Southwest 456 525 21,000 -1,900 Descending Atlanta Center
Tue 03:03:42 PM 34.8533 -83.5250 224° Southwest 451 519 19,100 -1,900 Descending Atlanta Center
Tue 03:04:42 PM 34.7514 -83.6192 217° Southwest 437 503 17,200 -1,900 Descending Atlanta Center
Tue 03:05:42 PM 34.6558 -83.6928 212° Southwest 421 484 15,300 -1,850 Descending Atlanta Center
Tue 03:06:42 PM 34.5642 -83.7536 209° Southwest 401 461 13,500 -1,700 Descending Atlanta Center
Tue 03:07:42 PM 34.4786 -83.8219 213° Southwest 390 449 11,900 -1,550 Descending Atlanta Center
Tue 03:08:42 PM 34.4036 -83.8903 217° Southwest 357 411 10,400 -1,350 Descending Atlanta Center
Tue 03:09:42 PM 34.3514 -83.9633 229° Southwest 302 348 9,200 -1,100 Descending Atlanta Center
Tue 03:10:42 PM 34.3222 -84.0389 245° Southwest 290 334 8,200 -600 Descending Atlanta Center
Tue 03:11:42 PM 34.2889 -84.1167 243° Southwest 276 318 8,000 -300 Descending Atlanta Center
Tue 03:12:42 PM 34.2136 -84.1467 198° South 260 299 7,600 -850 Descending Atlanta Center
Tue 03:13:42 PM 34.1428 -84.1819 202° Southwest 273 314 6,300 -1,402 Descending Atlanta Center
Tue 03:14:29 PM 34.0833 -84.2167 206° Southwest 253 291 5,100 -1,346 Descending Atlanta TRACON
Tue 03:15:29 PM 34.0333 -84.2333 195° South 227 261 3,900 -1,200 Descending Atlanta TRACON
Tue 03:16:29 PM 33.9667 -84.2667 203° Southwest 206 237 2,700 -1,000 Descending Atlanta TRACON
Tue 03:17:29 PM 33.9333 -84.2833 203° Southwest 150 173 1,900 -800 Descending Atlanta TRACON
Tue 03:19:00 PM 33.8756 -84.3020 209° Southwest  Level Estimated
Tue 03:26:00 PM 33.8756 -84.3020 209° Southwest  Level Estimated

Login

Don't have an account? Register now (free) for customized features, flight alerts, and more!